Ballantine, Montana
Current Conditions -  °F | °C
As of 4:53 PM on Friday 24 Oct 2014 (Local Time) from KBIL Reporting Station
Overcast Overcast  
Wind Chill: 14°   Ceiling: 10000
Heat Index: 14°   Visibility: 10mi
Dew Point:   Wind: 5mph
Humidity: 47%   Direction: 60°ENE
Pressure: 30.07"   Gusts: NA
Location:  45.95°N, 108.15°W
Report Text: KBIL 242253Z 06004KT 10SM OVC100 14/03 A3007 RMK AO2 SLP177 T01390028
Loading
Personal Weather Stations






























Interactive Weather Map
Tropical Storm Tracking
New forecast layout! Learn more

10-Day Weather Forecast

Advertisements
Track Severe Weather on mobile